sensor_id;sensor_type;location;lat;lon;timestamp;P1;durP1;ratioP1;P2;durP2;ratioP2
65581;SDS011;52231;40.090;18.348;2023-03-23T00:01:55;96.50;;;30.20;;
65581;SDS011;52231;40.090;18.348;2023-03-23T00:04:23;79.40;;;29.40;;
65581;SDS011;52231;40.090;18.348;2023-03-23T00:06:55;83.28;;;29.38;;
65581;SDS011;52231;40.090;18.348;2023-03-23T00:09:22;73.05;;;27.52;;
65581;SDS011;52231;40.090;18.348;2023-03-23T00:11:50;69.90;;;26.15;;
65581;SDS011;52231;40.090;18.348;2023-03-23T00:14:25;72.20;;;25.83;;
65581;SDS011;52231;40.090;18.348;2023-03-23T00:16:52;65.43;;;24.77;;
65581;SDS011;52231;40.090;18.348;2023-03-23T00:19:21;66.43;;;23.60;;
65581;SDS011;52231;40.090;18.348;2023-03-23T00:21:48;65.05;;;24.00;;
65581;SDS011;52231;40.090;18.348;2023-03-23T00:24:19;75.28;;;22.55;;
65581;SDS011;52231;40.090;18.348;2023-03-23T00:26:47;67.20;;;24.00;;
65581;SDS011;52231;40.090;18.348;2023-03-23T00:29:26;64.25;;;23.67;;
65581;SDS011;52231;40.090;18.348;2023-03-23T00:31:54;62.13;;;23.30;;
65581;SDS011;52231;40.090;18.348;2023-03-23T00:34:23;60.30;;;23.65;;
65581;SDS011;52231;40.090;18.348;2023-03-23T00:36:51;52.65;;;22.33;;
65581;SDS011;52231;40.090;18.348;2023-03-23T00:39:23;61.53;;;22.58;;
65581;SDS011;52231;40.090;18.348;2023-03-23T00:41:53;56.88;;;24.05;;
65581;SDS011;52231;40.090;18.348;2023-03-23T00:44:35;57.75;;;21.98;;
65581;SDS011;52231;40.090;18.348;2023-03-23T00:47:02;52.50;;;22.02;;
65581;SDS011;52231;40.090;18.348;2023-03-23T00:49:30;59.80;;;21.02;;
65581;SDS011;52231;40.090;18.348;2023-03-23T00:52:05;53.08;;;21.23;;
65581;SDS011;52231;40.090;18.348;2023-03-23T00:54:39;57.63;;;22.02;;
65581;SDS011;52231;40.090;18.348;2023-03-23T00:57:06;55.90;;;22.05;;
65581;SDS011;52231;40.090;18.348;2023-03-23T00:59:36;51.10;;;20.83;;
65581;SDS011;52231;40.090;18.348;2023-03-23T01:02:12;47.92;;;21.90;;
65581;SDS011;52231;40.090;18.348;2023-03-23T01:04:54;52.50;;;21.48;;
65581;SDS011;52231;40.090;18.348;2023-03-23T01:07:27;57.70;;;21.00;;
65581;SDS011;52231;40.090;18.348;2023-03-23T01:10:00;52.78;;;20.25;;
65581;SDS011;52231;40.090;18.348;2023-03-23T01:12:28;44.78;;;20.67;;
65581;SDS011;52231;40.090;18.348;2023-03-23T01:14:56;54.83;;;20.45;;
65581;SDS011;52231;40.090;18.348;2023-03-23T01:17:23;50.75;;;21.85;;
65581;SDS011;52231;40.090;18.348;2023-03-23T01:19:53;49.80;;;20.25;;
65581;SDS011;52231;40.090;18.348;2023-03-23T01:22:24;48.15;;;21.13;;
65581;SDS011;52231;40.090;18.348;2023-03-23T01:24:52;47.53;;;20.88;;
65581;SDS011;52231;40.090;18.348;2023-03-23T01:27:19;49.97;;;22.48;;
65581;SDS011;52231;40.090;18.348;2023-03-23T01:29:55;49.78;;;22.58;;
65581;SDS011;52231;40.090;18.348;2023-03-23T01:32:26;50.33;;;21.63;;
65581;SDS011;52231;40.090;18.348;2023-03-23T01:34:54;47.85;;;22.10;;
65581;SDS011;52231;40.090;18.348;2023-03-23T01:37:29;48.05;;;20.83;;
65581;SDS011;52231;40.090;18.348;2023-03-23T01:40:03;44.63;;;20.17;;
65581;SDS011;52231;40.090;18.348;2023-03-23T01:48:11;50.13;;;19.25;;
65581;SDS011;52231;40.090;18.348;2023-03-23T01:53:24;50.60;;;20.45;;
65581;SDS011;52231;40.090;18.348;2023-03-23T01:55:56;53.17;;;19.45;;
65581;SDS011;52231;40.090;18.348;2023-03-23T01:58:27;56.22;;;19.38;;
65581;SDS011;52231;40.090;18.348;2023-03-23T02:00:58;60.08;;;21.15;;
65581;SDS011;52231;40.090;18.348;2023-03-23T02:03:29;58.28;;;21.02;;
65581;SDS011;52231;40.090;18.348;2023-03-23T02:05:58;70.47;;;20.05;;
65581;SDS011;52231;40.090;18.348;2023-03-23T02:08:35;56.63;;;19.75;;
65581;SDS011;52231;40.090;18.348;2023-03-23T02:11:17;63.45;;;20.65;;
65581;SDS011;52231;40.090;18.348;2023-03-23T02:13:46;65.65;;;21.83;;
65581;SDS011;52231;40.090;18.348;2023-03-23T02:16:17;54.72;;;21.60;;
65581;SDS011;52231;40.090;18.348;2023-03-23T02:18:53;66.28;;;22.33;;
65581;SDS011;52231;40.090;18.348;2023-03-23T02:27:09;55.95;;;21.17;;
65581;SDS011;52231;40.090;18.348;2023-03-23T02:35:30;61.53;;;20.92;;
65581;SDS011;52231;40.090;18.348;2023-03-23T02:38:10;60.20;;;21.80;;
65581;SDS011;52231;40.090;18.348;2023-03-23T02:40:47;66.20;;;21.42;;
65581;SDS011;52231;40.090;18.348;2023-03-23T02:43:18;66.38;;;23.45;;
65581;SDS011;52231;40.090;18.348;2023-03-23T02:45:51;64.63;;;23.58;;
65581;SDS011;52231;40.090;18.348;2023-03-23T02:48:21;63.15;;;23.50;;
65581;SDS011;52231;40.090;18.348;2023-03-23T02:51:00;61.33;;;24.15;;
65581;SDS011;52231;40.090;18.348;2023-03-23T02:53:33;60.70;;;23.13;;
65581;SDS011;52231;40.090;18.348;2023-03-23T02:56:03;62.78;;;23.33;;
65581;SDS011;52231;40.090;18.348;2023-03-23T02:58:34;60.10;;;24.20;;
65581;SDS011;52231;40.090;18.348;2023-03-23T03:04:12;56.92;;;22.67;;
65581;SDS011;52231;40.090;18.348;2023-03-23T03:07:01;58.47;;;23.48;;
65581;SDS011;52231;40.090;18.348;2023-03-23T03:10:04;55.83;;;22.77;;
65581;SDS011;52231;40.090;18.348;2023-03-23T03:18:00;57.97;;;25.15;;
65581;SDS011;52231;40.090;18.348;2023-03-23T03:20:39;56.72;;;25.85;;
65581;SDS011;52231;40.090;18.348;2023-03-23T03:23:12;54.72;;;26.48;;
65581;SDS011;52231;40.090;18.348;2023-03-23T03:25:43;51.83;;;25.50;;
65581;SDS011;52231;40.090;18.348;2023-03-23T03:28:19;55.58;;;25.58;;
65581;SDS011;52231;40.090;18.348;2023-03-23T03:30:51;60.08;;;27.05;;
65581;SDS011;52231;40.090;18.348;2023-03-23T03:33:24;53.70;;;25.30;;
65581;SDS011;52231;40.090;18.348;2023-03-23T03:35:54;52.53;;;24.58;;
65581;SDS011;52231;40.090;18.348;2023-03-23T03:38:23;50.83;;;24.75;;
65581;SDS011;52231;40.090;18.348;2023-03-23T03:40:54;51.55;;;24.65;;
65581;SDS011;52231;40.090;18.348;2023-03-23T03:43:23;53.45;;;25.55;;
65581;SDS011;52231;40.090;18.348;2023-03-23T03:45:51;48.33;;;23.10;;
65581;SDS011;52231;40.090;18.348;2023-03-23T03:48:19;48.92;;;23.92;;
65581;SDS011;52231;40.090;18.348;2023-03-23T03:50:47;47.35;;;23.23;;
65581;SDS011;52231;40.090;18.348;2023-03-23T03:53:14;41.92;;;21.60;;
65581;SDS011;52231;40.090;18.348;2023-03-23T03:55:57;41.72;;;21.00;;
65581;SDS011;52231;40.090;18.348;2023-03-23T03:58:35;41.40;;;20.08;;
65581;SDS011;52231;40.090;18.348;2023-03-23T04:01:11;44.92;;;22.38;;
65581;SDS011;52231;40.090;18.348;2023-03-23T04:03:40;46.72;;;21.98;;
65581;SDS011;52231;40.090;18.348;2023-03-23T04:06:13;45.83;;;22.38;;
65581;SDS011;52231;40.090;18.348;2023-03-23T04:08:41;49.70;;;23.40;;
65581;SDS011;52231;40.090;18.348;2023-03-23T04:11:09;49.60;;;24.80;;
65581;SDS011;52231;40.090;18.348;2023-03-23T04:13:50;54.38;;;25.73;;
65581;SDS011;52231;40.090;18.348;2023-03-23T04:16:24;50.30;;;25.17;;
65581;SDS011;52231;40.090;18.348;2023-03-23T04:19:05;52.78;;;25.70;;
65581;SDS011;52231;40.090;18.348;2023-03-23T04:21:33;50.78;;;25.40;;
65581;SDS011;52231;40.090;18.348;2023-03-23T04:24:00;55.13;;;26.20;;
65581;SDS011;52231;40.090;18.348;2023-03-23T04:26:29;51.50;;;26.05;;
65581;SDS011;52231;40.090;18.348;2023-03-23T04:29:13;49.20;;;23.92;;
65581;SDS011;52231;40.090;18.348;2023-03-23T04:32:03;48.08;;;23.38;;
65581;SDS011;52231;40.090;18.348;2023-03-23T04:38:31;48.30;;;23.30;;
65581;SDS011;52231;40.090;18.348;2023-03-23T04:41:11;45.70;;;23.17;;
65581;SDS011;52231;40.090;18.348;2023-03-23T04:44:02;45.92;;;22.88;;
65581;SDS011;52231;40.090;18.348;2023-03-23T04:46:50;53.85;;;26.15;;
65581;SDS011;52231;40.090;18.348;2023-03-23T04:52:22;50.33;;;26.25;;
65581;SDS011;52231;40.090;18.348;2023-03-23T04:54:55;54.42;;;27.02;;
65581;SDS011;52231;40.090;18.348;2023-03-23T04:57:33;54.20;;;27.95;;
65581;SDS011;52231;40.090;18.348;2023-03-23T05:00:37;53.88;;;25.05;;
65581;SDS011;52231;40.090;18.348;2023-03-23T05:03:04;54.42;;;26.35;;
65581;SDS011;52231;40.090;18.348;2023-03-23T05:05:34;54.78;;;29.08;;
65581;SDS011;52231;40.090;18.348;2023-03-23T05:08:06;54.95;;;27.75;;
65581;SDS011;52231;40.090;18.348;2023-03-23T05:10:37;54.00;;;26.85;;
65581;SDS011;52231;40.090;18.348;2023-03-23T05:13:09;53.95;;;27.15;;
65581;SDS011;52231;40.090;18.348;2023-03-23T05:15:37;56.22;;;27.75;;
65581;SDS011;52231;40.090;18.348;2023-03-23T05:18:05;58.17;;;28.80;;
65581;SDS011;52231;40.090;18.348;2023-03-23T05:20:33;61.97;;;28.70;;
65581;SDS011;52231;40.090;18.348;2023-03-23T05:23:04;61.03;;;29.67;;
65581;SDS011;52231;40.090;18.348;2023-03-23T05:25:35;59.03;;;28.45;;
65581;SDS011;52231;40.090;18.348;2023-03-23T05:28:18;61.58;;;31.30;;
65581;SDS011;52231;40.090;18.348;2023-03-23T05:31:07;61.08;;;30.85;;
65581;SDS011;52231;40.090;18.348;2023-03-23T05:33:35;56.10;;;29.85;;
65581;SDS011;52231;40.090;18.348;2023-03-23T05:36:21;56.15;;;29.75;;
65581;SDS011;52231;40.090;18.348;2023-03-23T05:39:12;52.97;;;27.67;;
65581;SDS011;52231;40.090;18.348;2023-03-23T05:42:04;48.92;;;26.80;;
65581;SDS011;52231;40.090;18.348;2023-03-23T05:45:04;46.70;;;24.45;;
65581;SDS011;52231;40.090;18.348;2023-03-23T05:51:03;40.30;;;21.92;;
65581;SDS011;52231;40.090;18.348;2023-03-23T05:53:39;44.92;;;23.38;;
65581;SDS011;52231;40.090;18.348;2023-03-23T05:56:11;39.38;;;22.10;;
65581;SDS011;52231;40.090;18.348;2023-03-23T05:58:55;39.40;;;22.23;;
65581;SDS011;52231;40.090;18.348;2023-03-23T06:01:23;37.70;;;21.42;;
65581;SDS011;52231;40.090;18.348;2023-03-23T06:03:51;41.33;;;22.92;;
65581;SDS011;52231;40.090;18.348;2023-03-23T06:06:26;39.17;;;22.67;;
65581;SDS011;52231;40.090;18.348;2023-03-23T06:09:14;36.85;;;20.90;;
65581;SDS011;52231;40.090;18.348;2023-03-23T06:12:09;34.00;;;20.13;;
65581;SDS011;52231;40.090;18.348;2023-03-23T06:14:47;33.95;;;19.85;;
65581;SDS011;52231;40.090;18.348;2023-03-23T06:17:19;37.22;;;18.92;;
65581;SDS011;52231;40.090;18.348;2023-03-23T06:19:51;32.70;;;19.35;;
65581;SDS011;52231;40.090;18.348;2023-03-23T06:22:20;31.85;;;18.20;;
65581;SDS011;52231;40.090;18.348;2023-03-23T06:25:06;31.25;;;18.08;;
65581;SDS011;52231;40.090;18.348;2023-03-23T06:27:39;29.52;;;17.92;;
65581;SDS011;52231;40.090;18.348;2023-03-23T06:30:08;32.20;;;17.73;;
65581;SDS011;52231;40.090;18.348;2023-03-23T06:32:36;29.50;;;17.48;;
65581;SDS011;52231;40.090;18.348;2023-03-23T06:35:09;28.15;;;16.00;;
65581;SDS011;52231;40.090;18.348;2023-03-23T06:38:08;27.05;;;15.30;;
65581;SDS011;52231;40.090;18.348;2023-03-23T06:40:47;23.67;;;15.02;;
65581;SDS011;52231;40.090;18.348;2023-03-23T06:43:15;23.75;;;14.95;;
65581;SDS011;52231;40.090;18.348;2023-03-23T06:45:59;26.83;;;14.15;;
65581;SDS011;52231;40.090;18.348;2023-03-23T06:48:41;25.58;;;14.13;;
65581;SDS011;52231;40.090;18.348;2023-03-23T06:51:16;26.50;;;13.48;;
65581;SDS011;52231;40.090;18.348;2023-03-23T06:53:48;21.10;;;13.05;;
65581;SDS011;52231;40.090;18.348;2023-03-23T06:56:15;22.55;;;13.13;;
65581;SDS011;52231;40.090;18.348;2023-03-23T06:58:43;22.90;;;12.05;;
65581;SDS011;52231;40.090;18.348;2023-03-23T07:01:14;22.05;;;11.70;;
65581;SDS011;52231;40.090;18.348;2023-03-23T07:03:50;17.38;;;10.23;;
65581;SDS011;52231;40.090;18.348;2023-03-23T07:06:24;20.48;;;10.80;;
65581;SDS011;52231;40.090;18.348;2023-03-23T07:08:57;15.75;;;9.63;;
65581;SDS011;52231;40.090;18.348;2023-03-23T07:11:27;19.10;;;11.05;;
65581;SDS011;52231;40.090;18.348;2023-03-23T07:13:57;15.35;;;9.05;;
65581;SDS011;52231;40.090;18.348;2023-03-23T07:16:25;17.63;;;9.95;;
65581;SDS011;52231;40.090;18.348;2023-03-23T07:18:53;17.67;;;9.20;;
65581;SDS011;52231;40.090;18.348;2023-03-23T07:21:20;19.65;;;9.07;;
65581;SDS011;52231;40.090;18.348;2023-03-23T07:23:48;15.55;;;7.47;;
65581;SDS011;52231;40.090;18.348;2023-03-23T07:26:23;16.55;;;8.32;;
65581;SDS011;52231;40.090;18.348;2023-03-23T07:28:54;14.60;;;8.15;;
65581;SDS011;52231;40.090;18.348;2023-03-23T07:31:33;14.88;;;7.97;;
65581;SDS011;52231;40.090;18.348;2023-03-23T07:34:00;12.73;;;7.63;;
65581;SDS011;52231;40.090;18.348;2023-03-23T07:36:41;16.27;;;9.00;;
65581;SDS011;52231;40.090;18.348;2023-03-23T07:39:10;20.05;;;8.70;;
65581;SDS011;52231;40.090;18.348;2023-03-23T07:41:39;15.27;;;8.20;;
65581;SDS011;52231;40.090;18.348;2023-03-23T07:44:15;17.45;;;8.35;;
65581;SDS011;52231;40.090;18.348;2023-03-23T07:46:43;15.25;;;8.70;;
65581;SDS011;52231;40.090;18.348;2023-03-23T07:49:15;16.15;;;8.70;;
65581;SDS011;52231;40.090;18.348;2023-03-23T07:51:48;17.52;;;8.35;;
65581;SDS011;52231;40.090;18.348;2023-03-23T07:57:07;15.35;;;7.60;;
65581;SDS011;52231;40.090;18.348;2023-03-23T07:59:38;16.23;;;7.93;;
65581;SDS011;52231;40.090;18.348;2023-03-23T08:02:07;16.98;;;8.23;;
65581;SDS011;52231;40.090;18.348;2023-03-23T08:04:53;13.63;;;7.55;;
65581;SDS011;52231;40.090;18.348;2023-03-23T08:07:31;16.15;;;7.45;;
65581;SDS011;52231;40.090;18.348;2023-03-23T08:10:28;12.80;;;6.90;;
65581;SDS011;52231;40.090;18.348;2023-03-23T08:13:14;13.18;;;6.70;;
65581;SDS011;52231;40.090;18.348;2023-03-23T08:16:04;14.70;;;7.60;;
65581;SDS011;52231;40.090;18.348;2023-03-23T08:18:57;13.13;;;6.80;;
65581;SDS011;52231;40.090;18.348;2023-03-23T08:21:45;15.07;;;6.63;;
65581;SDS011;52231;40.090;18.348;2023-03-23T08:24:36;13.05;;;6.25;;
65581;SDS011;52231;40.090;18.348;2023-03-23T08:27:36;11.10;;;6.18;;
65581;SDS011;52231;40.090;18.348;2023-03-23T08:30:26;13.70;;;6.60;;
65581;SDS011;52231;40.090;18.348;2023-03-23T08:33:21;12.75;;;6.40;;
65581;SDS011;52231;40.090;18.348;2023-03-23T08:36:10;12.10;;;6.85;;
65581;SDS011;52231;40.090;18.348;2023-03-23T08:39:13;13.35;;;6.38;;
65581;SDS011;52231;40.090;18.348;2023-03-23T08:41:59;10.43;;;5.90;;
65581;SDS011;52231;40.090;18.348;2023-03-23T08:45:02;14.93;;;6.90;;
65581;SDS011;52231;40.090;18.348;2023-03-23T08:47:46;11.50;;;6.45;;
65581;SDS011;52231;40.090;18.348;2023-03-23T08:50:36;11.70;;;6.22;;
65581;SDS011;52231;40.090;18.348;2023-03-23T08:53:29;12.60;;;6.40;;
65581;SDS011;52231;40.090;18.348;2023-03-23T08:56:15;12.52;;;6.40;;
65581;SDS011;52231;40.090;18.348;2023-03-23T08:58:49;11.63;;;6.38;;
65581;SDS011;52231;40.090;18.348;2023-03-23T09:01:31;13.55;;;6.43;;
65581;SDS011;52231;40.090;18.348;2023-03-23T09:04:22;12.95;;;6.25;;
65581;SDS011;52231;40.090;18.348;2023-03-23T09:06:49;11.80;;;6.38;;
65581;SDS011;52231;40.090;18.348;2023-03-23T09:09:16;10.63;;;5.85;;
65581;SDS011;52231;40.090;18.348;2023-03-23T09:11:43;12.20;;;5.80;;
65581;SDS011;52231;40.090;18.348;2023-03-23T09:14:10;11.93;;;5.80;;
65581;SDS011;52231;40.090;18.348;2023-03-23T09:16:38;11.40;;;6.25;;
65581;SDS011;52231;40.090;18.348;2023-03-23T09:19:06;11.73;;;5.70;;
65581;SDS011;52231;40.090;18.348;2023-03-23T09:21:35;13.50;;;6.35;;
65581;SDS011;52231;40.090;18.348;2023-03-23T09:24:02;12.82;;;6.55;;
65581;SDS011;52231;40.090;18.348;2023-03-23T09:26:31;13.48;;;6.57;;
65581;SDS011;52231;40.090;18.348;2023-03-23T09:28:58;11.55;;;5.95;;
65581;SDS011;52231;40.090;18.348;2023-03-23T09:31:25;13.20;;;6.00;;
65581;SDS011;52231;40.090;18.348;2023-03-23T09:33:53;12.15;;;6.45;;
65581;SDS011;52231;40.090;18.348;2023-03-23T09:36:23;12.40;;;5.80;;
65581;SDS011;52231;40.090;18.348;2023-03-23T09:38:51;11.70;;;5.72;;
65581;SDS011;52231;40.090;18.348;2023-03-23T09:42:08;13.45;;;6.57;;
65581;SDS011;52231;40.090;18.348;2023-03-23T09:49:53;11.35;;;5.28;;
65581;SDS011;52231;40.090;18.348;2023-03-23T09:52:26;11.82;;;5.82;;
65581;SDS011;52231;40.090;18.348;2023-03-23T09:55:04;13.77;;;6.32;;
65581;SDS011;52231;40.090;18.348;2023-03-23T10:00:15;11.38;;;5.97;;
65581;SDS011;52231;40.090;18.348;2023-03-23T10:05:42;11.98;;;5.75;;
65581;SDS011;52231;40.090;18.348;2023-03-23T10:08:16;12.13;;;5.82;;
65581;SDS011;52231;40.090;18.348;2023-03-23T10:13:50;11.32;;;5.30;;
65581;SDS011;52231;40.090;18.348;2023-03-23T10:16:26;10.05;;;5.13;;
65581;SDS011;52231;40.090;18.348;2023-03-23T10:19:17;9.25;;;4.88;;
65581;SDS011;52231;40.090;18.348;2023-03-23T10:22:22;10.10;;;4.88;;
65581;SDS011;52231;40.090;18.348;2023-03-23T10:24:57;11.90;;;5.55;;
65581;SDS011;52231;40.090;18.348;2023-03-23T10:30:30;10.82;;;4.85;;
65581;SDS011;52231;40.090;18.348;2023-03-23T10:35:50;9.00;;;4.68;;
65581;SDS011;52231;40.090;18.348;2023-03-23T10:38:29;9.43;;;4.93;;
65581;SDS011;52231;40.090;18.348;2023-03-23T10:41:04;11.95;;;5.78;;
65581;SDS011;52231;40.090;18.348;2023-03-23T10:43:42;10.68;;;5.22;;
65581;SDS011;52231;40.090;18.348;2023-03-23T10:49:19;12.55;;;5.18;;
65581;SDS011;52231;40.090;18.348;2023-03-23T10:52:05;11.00;;;4.55;;
65581;SDS011;52231;40.090;18.348;2023-03-23T10:54:45;9.07;;;4.43;;
65581;SDS011;52231;40.090;18.348;2023-03-23T10:59:50;8.75;;;4.20;;
65581;SDS011;52231;40.090;18.348;2023-03-23T11:02:18;11.10;;;5.20;;
65581;SDS011;52231;40.090;18.348;2023-03-23T11:04:56;12.65;;;4.72;;
65581;SDS011;52231;40.090;18.348;2023-03-23T11:07:32;11.38;;;4.80;;
65581;SDS011;52231;40.090;18.348;2023-03-23T11:10:15;9.23;;;4.32;;
65581;SDS011;52231;40.090;18.348;2023-03-23T11:18:02;10.05;;;3.90;;
65581;SDS011;52231;40.090;18.348;2023-03-23T11:20:34;7.93;;;3.78;;
65581;SDS011;52231;40.090;18.348;2023-03-23T11:23:46;7.82;;;4.05;;
65581;SDS011;52231;40.090;18.348;2023-03-23T11:31:24;7.57;;;3.80;;
65581;SDS011;52231;40.090;18.348;2023-03-23T11:36:57;8.85;;;4.28;;
65581;SDS011;52231;40.090;18.348;2023-03-23T11:39:31;11.18;;;4.20;;
65581;SDS011;52231;40.090;18.348;2023-03-23T11:42:00;12.85;;;4.78;;
65581;SDS011;52231;40.090;18.348;2023-03-23T11:44:41;10.95;;;4.22;;
65581;SDS011;52231;40.090;18.348;2023-03-23T11:50:14;9.85;;;4.75;;
65581;SDS011;52231;40.090;18.348;2023-03-23T11:58:13;7.40;;;3.70;;
65581;SDS011;52231;40.090;18.348;2023-03-23T12:00:51;7.97;;;3.67;;
65581;SDS011;52231;40.090;18.348;2023-03-23T12:06:13;9.27;;;3.67;;
65581;SDS011;52231;40.090;18.348;2023-03-23T12:20:18;6.88;;;3.50;;
65581;SDS011;52231;40.090;18.348;2023-03-23T12:22:59;8.30;;;3.75;;
65581;SDS011;52231;40.090;18.348;2023-03-23T12:25:38;8.20;;;3.65;;
65581;SDS011;52231;40.090;18.348;2023-03-23T12:36:37;8.60;;;3.60;;
65581;SDS011;52231;40.090;18.348;2023-03-23T12:42:22;6.75;;;3.58;;
65581;SDS011;52231;40.090;18.348;2023-03-23T12:48:10;7.85;;;3.50;;
65581;SDS011;52231;40.090;18.348;2023-03-23T12:53:33;6.68;;;3.47;;
65581;SDS011;52231;40.090;18.348;2023-03-23T12:58:46;6.20;;;3.17;;
65581;SDS011;52231;40.090;18.348;2023-03-23T13:01:35;6.95;;;3.10;;
65581;SDS011;52231;40.090;18.348;2023-03-23T13:04:08;7.90;;;3.53;;
65581;SDS011;52231;40.090;18.348;2023-03-23T13:06:47;9.45;;;3.53;;
65581;SDS011;52231;40.090;18.348;2023-03-23T13:11:42;7.22;;;3.63;;
65581;SDS011;52231;40.090;18.348;2023-03-23T13:17:03;5.93;;;3.17;;
65581;SDS011;52231;40.090;18.348;2023-03-23T13:22:32;6.13;;;2.80;;
65581;SDS011;52231;40.090;18.348;2023-03-23T13:25:18;5.97;;;2.80;;
65581;SDS011;52231;40.090;18.348;2023-03-23T13:27:56;7.47;;;3.10;;
65581;SDS011;52231;40.090;18.348;2023-03-23T13:30:25;6.47;;;3.10;;
65581;SDS011;52231;40.090;18.348;2023-03-23T13:33:04;6.93;;;3.28;;
65581;SDS011;52231;40.090;18.348;2023-03-23T13:35:36;8.52;;;3.22;;
65581;SDS011;52231;40.090;18.348;2023-03-23T13:38:12;6.63;;;3.22;;
65581;SDS011;52231;40.090;18.348;2023-03-23T13:40:45;6.95;;;3.33;;
65581;SDS011;52231;40.090;18.348;2023-03-23T13:43:13;7.28;;;2.78;;
65581;SDS011;52231;40.090;18.348;2023-03-23T13:46:05;5.32;;;2.58;;
65581;SDS011;52231;40.090;18.348;2023-03-23T13:57:19;5.65;;;2.42;;
65581;SDS011;52231;40.090;18.348;2023-03-23T13:59:55;6.00;;;2.67;;
65581;SDS011;52231;40.090;18.348;2023-03-23T14:02:32;6.75;;;2.40;;
65581;SDS011;52231;40.090;18.348;2023-03-23T14:07:52;9.00;;;2.80;;
65581;SDS011;52231;40.090;18.348;2023-03-23T14:10:20;4.80;;;2.60;;
65581;SDS011;52231;40.090;18.348;2023-03-23T14:12:49;4.35;;;2.38;;
65581;SDS011;52231;40.090;18.348;2023-03-23T14:15:19;4.63;;;2.30;;
65581;SDS011;52231;40.090;18.348;2023-03-23T14:17:47;6.20;;;2.42;;
65581;SDS011;52231;40.090;18.348;2023-03-23T14:20:26;6.78;;;2.38;;
65581;SDS011;52231;40.090;18.348;2023-03-23T14:23:01;7.93;;;2.60;;
65581;SDS011;52231;40.090;18.348;2023-03-23T14:25:31;3.97;;;2.20;;
65581;SDS011;52231;40.090;18.348;2023-03-23T14:27:59;5.80;;;2.67;;
65581;SDS011;52231;40.090;18.348;2023-03-23T14:30:27;4.57;;;2.25;;
65581;SDS011;52231;40.090;18.348;2023-03-23T14:33:03;4.65;;;2.20;;
65581;SDS011;52231;40.090;18.348;2023-03-23T14:35:33;5.63;;;2.60;;
65581;SDS011;52231;40.090;18.348;2023-03-23T14:38:02;4.80;;;2.53;;
65581;SDS011;52231;40.090;18.348;2023-03-23T14:40:30;6.85;;;2.80;;
65581;SDS011;52231;40.090;18.348;2023-03-23T14:42:58;5.20;;;2.50;;
65581;SDS011;52231;40.090;18.348;2023-03-23T14:45:26;6.05;;;2.83;;
65581;SDS011;52231;40.090;18.348;2023-03-23T14:47:54;5.53;;;2.50;;
65581;SDS011;52231;40.090;18.348;2023-03-23T14:53:11;4.43;;;2.40;;
65581;SDS011;52231;40.090;18.348;2023-03-23T14:55:53;4.93;;;2.17;;
65581;SDS011;52231;40.090;18.348;2023-03-23T14:58:23;6.07;;;2.60;;
65581;SDS011;52231;40.090;18.348;2023-03-23T15:03:24;4.28;;;2.28;;
65581;SDS011;52231;40.090;18.348;2023-03-23T15:08:25;7.85;;;2.30;;
65581;SDS011;52231;40.090;18.348;2023-03-23T15:13:36;6.63;;;2.70;;
65581;SDS011;52231;40.090;18.348;2023-03-23T15:16:18;6.65;;;2.63;;
65581;SDS011;52231;40.090;18.348;2023-03-23T15:19:10;5.63;;;2.60;;
65581;SDS011;52231;40.090;18.348;2023-03-23T15:21:53;7.25;;;2.58;;
65581;SDS011;52231;40.090;18.348;2023-03-23T15:24:37;8.07;;;2.65;;
65581;SDS011;52231;40.090;18.348;2023-03-23T15:29:45;6.72;;;2.80;;
65581;SDS011;52231;40.090;18.348;2023-03-23T15:32:19;5.82;;;2.80;;
65581;SDS011;52231;40.090;18.348;2023-03-23T15:34:47;5.78;;;2.88;;
65581;SDS011;52231;40.090;18.348;2023-03-23T15:39:51;8.50;;;3.00;;
65581;SDS011;52231;40.090;18.348;2023-03-23T15:42:21;8.63;;;3.30;;
65581;SDS011;52231;40.090;18.348;2023-03-23T15:45:05;12.35;;;5.03;;
65581;SDS011;52231;40.090;18.348;2023-03-23T15:52:36;9.63;;;4.03;;
65581;SDS011;52231;40.090;18.348;2023-03-23T15:55:26;10.00;;;3.40;;
65581;SDS011;52231;40.090;18.348;2023-03-23T15:57:56;8.55;;;3.58;;
65581;SDS011;52231;40.090;18.348;2023-03-23T16:00:26;9.20;;;3.78;;
65581;SDS011;52231;40.090;18.348;2023-03-23T16:02:57;9.13;;;4.22;;
65581;SDS011;52231;40.090;18.348;2023-03-23T16:05:28;9.95;;;4.30;;
65581;SDS011;52231;40.090;18.348;2023-03-23T16:07:57;8.82;;;3.95;;
65581;SDS011;52231;40.090;18.348;2023-03-23T16:10:26;9.50;;;3.88;;
65581;SDS011;52231;40.090;18.348;2023-03-23T16:12:55;9.32;;;3.92;;
65581;SDS011;52231;40.090;18.348;2023-03-23T16:15:25;8.45;;;3.65;;
65581;SDS011;52231;40.090;18.348;2023-03-23T16:20:27;7.95;;;3.40;;
65581;SDS011;52231;40.090;18.348;2023-03-23T16:22:56;12.32;;;4.30;;
65581;SDS011;52231;40.090;18.348;2023-03-23T16:25:24;9.70;;;4.28;;
65581;SDS011;52231;40.090;18.348;2023-03-23T16:27:53;8.52;;;3.60;;
65581;SDS011;52231;40.090;18.348;2023-03-23T16:30:23;8.10;;;3.75;;
65581;SDS011;52231;40.090;18.348;2023-03-23T16:32:54;9.05;;;4.03;;
65581;SDS011;52231;40.090;18.348;2023-03-23T16:35:24;11.30;;;4.68;;
65581;SDS011;52231;40.090;18.348;2023-03-23T16:37:54;9.13;;;4.40;;
65581;SDS011;52231;40.090;18.348;2023-03-23T16:40:24;11.13;;;4.97;;
65581;SDS011;52231;40.090;18.348;2023-03-23T16:42:53;11.88;;;4.82;;
65581;SDS011;52231;40.090;18.348;2023-03-23T16:45:23;10.65;;;4.47;;
65581;SDS011;52231;40.090;18.348;2023-03-23T16:47:53;11.77;;;4.70;;
65581;SDS011;52231;40.090;18.348;2023-03-23T16:50:28;12.05;;;4.85;;
65581;SDS011;52231;40.090;18.348;2023-03-23T16:52:58;13.15;;;4.85;;
65581;SDS011;52231;40.090;18.348;2023-03-23T16:55:27;11.30;;;4.35;;
65581;SDS011;52231;40.090;18.348;2023-03-23T16:57:56;12.80;;;4.78;;
65581;SDS011;52231;40.090;18.348;2023-03-23T17:00:32;12.32;;;4.72;;
65581;SDS011;52231;40.090;18.348;2023-03-23T17:03:00;12.68;;;4.78;;
65581;SDS011;52231;40.090;18.348;2023-03-23T17:08:01;12.18;;;4.95;;
65581;SDS011;52231;40.090;18.348;2023-03-23T17:10:30;11.00;;;4.80;;
65581;SDS011;52231;40.090;18.348;2023-03-23T17:12:59;13.65;;;5.93;;
65581;SDS011;52231;40.090;18.348;2023-03-23T17:15:28;13.98;;;5.80;;
65581;SDS011;52231;40.090;18.348;2023-03-23T17:17:57;13.50;;;5.75;;
65581;SDS011;52231;40.090;18.348;2023-03-23T17:20:25;14.82;;;5.93;;
65581;SDS011;52231;40.090;18.348;2023-03-23T17:22:54;15.95;;;6.43;;
65581;SDS011;52231;40.090;18.348;2023-03-23T17:25:23;13.95;;;6.65;;
65581;SDS011;52231;40.090;18.348;2023-03-23T17:27:51;16.38;;;6.50;;
65581;SDS011;52231;40.090;18.348;2023-03-23T17:30:20;15.02;;;6.60;;
65581;SDS011;52231;40.090;18.348;2023-03-23T17:32:49;13.70;;;5.78;;
65581;SDS011;52231;40.090;18.348;2023-03-23T17:35:18;13.63;;;6.00;;
65581;SDS011;52231;40.090;18.348;2023-03-23T17:37:48;11.57;;;5.15;;
65581;SDS011;52231;40.090;18.348;2023-03-23T17:40:19;11.50;;;5.13;;
65581;SDS011;52231;40.090;18.348;2023-03-23T17:42:47;14.40;;;5.10;;
65581;SDS011;52231;40.090;18.348;2023-03-23T17:47:45;13.20;;;5.82;;
65581;SDS011;52231;40.090;18.348;2023-03-23T17:50:14;12.88;;;5.97;;
65581;SDS011;52231;40.090;18.348;2023-03-23T17:52:43;15.43;;;6.32;;